sensor_id;sensor_type;location;lat;lon;timestamp;pressure;altitude;pressure_sealevel;temperature;humidity
80911;BME280;70359;51.420;7.032;2024-03-25T00:00:18;992.3165;;;7.82;62.25293
80911;BME280;70359;51.420;7.032;2024-03-25T00:02:43;992.1989;;;7.84;61.82813
80911;BME280;70359;51.420;7.032;2024-03-25T00:05:09;992.2206;;;7.98;61.33008
80911;BME280;70359;51.420;7.032;2024-03-25T00:07:33;992.2183;;;7.89;61.54395
80911;BME280;70359;51.420;7.032;2024-03-25T00:09:58;992.2456;;;7.91;61.04004
80911;BME280;70359;51.420;7.032;2024-03-25T00:12:23;992.2598;;;7.87;61.11426
80911;BME280;70359;51.420;7.032;2024-03-25T00:14:48;992.3073;;;7.85;61.13281
80911;BME280;70359;51.420;7.032;2024-03-25T00:17:13;992.3457;;;7.76;61.52441
80911;BME280;70359;51.420;7.032;2024-03-25T00:19:38;992.3131;;;7.75;61.5459
80911;BME280;70359;51.420;7.032;2024-03-25T00:22:03;992.3487;;;7.77;61.36816
80911;BME280;70359;51.420;7.032;2024-03-25T00:24:28;992.3091;;;7.72;61.2832
80911;BME280;70359;51.420;7.032;2024-03-25T00:26:53;992.264;;;7.76;61.13086
80911;BME280;70359;51.420;7.032;2024-03-25T00:29:18;992.2681;;;7.93;60.72852
80911;BME280;70359;51.420;7.032;2024-03-25T00:31:43;992.2733;;;7.92;60.58105
80911;BME280;70359;51.420;7.032;2024-03-25T00:34:08;992.2654;;;8.02;60.06543
80911;BME280;70359;51.420;7.032;2024-03-25T00:36:33;992.2536;;;7.99;60.07422
80911;BME280;70359;51.420;7.032;2024-03-25T00:38:58;992.2509;;;7.9;60.4541
80911;BME280;70359;51.420;7.032;2024-03-25T00:41:23;992.2341;;;7.85;60.60449
80911;BME280;70359;51.420;7.032;2024-03-25T00:43:48;992.2875;;;7.83;60.73535
80911;BME280;70359;51.420;7.032;2024-03-25T00:46:13;992.2551;;;7.76;60.17578
80911;BME280;70359;51.420;7.032;2024-03-25T00:48:38;992.2111;;;7.93;59.37793
80911;BME280;70359;51.420;7.032;2024-03-25T00:51:03;992.218;;;7.86;59.70605
80911;BME280;70359;51.420;7.032;2024-03-25T00:53:28;992.3147;;;7.66;61.15234
80911;BME280;70359;51.420;7.032;2024-03-25T00:55:53;992.267;;;7.75;60.68066
80911;BME280;70359;51.420;7.032;2024-03-25T00:58:18;992.2081;;;7.76;60.31055
80911;BME280;70359;51.420;7.032;2024-03-25T01:00:43;992.2275;;;7.75;60.68066
80911;BME280;70359;51.420;7.032;2024-03-25T01:03:08;992.2828;;;7.76;60.64941
80911;BME280;70359;51.420;7.032;2024-03-25T01:05:33;992.2637;;;7.74;60.75781
80911;BME280;70359;51.420;7.032;2024-03-25T01:07:58;992.2268;;;7.74;60.46582
80911;BME280;70359;51.420;7.032;2024-03-25T01:10:23;992.2686;;;7.7;60.89746
80911;BME280;70359;51.420;7.032;2024-03-25T01:12:48;992.2436;;;7.75;60.82617
80911;BME280;70359;51.420;7.032;2024-03-25T01:15:13;992.2455;;;7.64;60.91211
80911;BME280;70359;51.420;7.032;2024-03-25T01:17:38;992.2048;;;7.81;60.26172
80911;BME280;70359;51.420;7.032;2024-03-25T01:20:04;992.2249;;;7.88;59.86719
80911;BME280;70359;51.420;7.032;2024-03-25T01:22:28;992.2233;;;7.92;59.56836
80911;BME280;70359;51.420;7.032;2024-03-25T01:24:53;992.2279;;;7.84;59.91797
80911;BME280;70359;51.420;7.032;2024-03-25T01:27:18;992.2855;;;7.78;60.32617
80911;BME280;70359;51.420;7.032;2024-03-25T01:29:43;992.2587;;;7.77;60.16602
80911;BME280;70359;51.420;7.032;2024-03-25T01:32:09;992.2231;;;7.67;60.21973
80911;BME280;70359;51.420;7.032;2024-03-25T01:34:33;992.198;;;7.85;59.79492
80911;BME280;70359;51.420;7.032;2024-03-25T01:36:58;992.2028;;;7.77;60.2334
80911;BME280;70359;51.420;7.032;2024-03-25T01:39:23;992.2242;;;7.71;59.78906
80911;BME280;70359;51.420;7.032;2024-03-25T01:41:48;992.1655;;;7.64;60.67676
80911;BME280;70359;51.420;7.032;2024-03-25T01:44:13;992.1962;;;7.69;60.45898
80911;BME280;70359;51.420;7.032;2024-03-25T01:46:38;992.1987;;;7.61;60.83008
80911;BME280;70359;51.420;7.032;2024-03-25T01:49:03;992.2159;;;7.72;60.20508
80911;BME280;70359;51.420;7.032;2024-03-25T01:51:29;992.2594;;;7.7;60.2793
80911;BME280;70359;51.420;7.032;2024-03-25T01:53:54;992.2758;;;7.64;60.2832
80911;BME280;70359;51.420;7.032;2024-03-25T01:56:19;992.2497;;;7.58;60.4541
80911;BME280;70359;51.420;7.032;2024-03-25T01:58:44;992.2701;;;7.56;60.32813
80911;BME280;70359;51.420;7.032;2024-03-25T02:01:09;992.2467;;;7.57;60.39648
80911;BME280;70359;51.420;7.032;2024-03-25T02:03:34;992.2606;;;7.68;59.68262
80911;BME280;70359;51.420;7.032;2024-03-25T02:05:59;992.2523;;;7.61;59.91895
80911;BME280;70359;51.420;7.032;2024-03-25T02:08:24;992.2776;;;7.61;59.99902
80911;BME280;70359;51.420;7.032;2024-03-25T02:10:49;992.3374;;;7.38;61.04492
80911;BME280;70359;51.420;7.032;2024-03-25T02:13:14;992.3569;;;7.4;61.22754
80911;BME280;70359;51.420;7.032;2024-03-25T02:15:39;992.4492;;;7.32;61.66406
80911;BME280;70359;51.420;7.032;2024-03-25T02:18:04;992.3569;;;7.35;61.20898
80911;BME280;70359;51.420;7.032;2024-03-25T02:20:29;992.3624;;;7.36;60.87402
80911;BME280;70359;51.420;7.032;2024-03-25T02:22:54;992.4147;;;7.32;61.28418
80911;BME280;70359;51.420;7.032;2024-03-25T02:25:19;992.3908;;;7.26;61.68945
80911;BME280;70359;51.420;7.032;2024-03-25T02:27:44;992.367;;;7.38;60.66309
80911;BME280;70359;51.420;7.032;2024-03-25T02:30:09;992.3502;;;7.21;60.98828
80911;BME280;70359;51.420;7.032;2024-03-25T02:32:34;992.4014;;;7.18;61.12891
80911;BME280;70359;51.420;7.032;2024-03-25T02:34:59;992.4019;;;7.25;61.2627
80911;BME280;70359;51.420;7.032;2024-03-25T02:37:24;992.4222;;;7.31;60.49512
80911;BME280;70359;51.420;7.032;2024-03-25T02:39:49;992.4141;;;7.23;61.00098
80911;BME280;70359;51.420;7.032;2024-03-25T02:42:14;992.4125;;;7.17;61.2627
80911;BME280;70359;51.420;7.032;2024-03-25T02:44:39;992.4308;;;7.36;60.59277
80911;BME280;70359;51.420;7.032;2024-03-25T02:47:04;992.4314;;;7.42;60.11816
80911;BME280;70359;51.420;7.032;2024-03-25T02:49:29;992.4564;;;7.42;60.12891
80911;BME280;70359;51.420;7.032;2024-03-25T02:51:54;992.4769;;;7.36;60.30078
80911;BME280;70359;51.420;7.032;2024-03-25T02:54:19;992.4486;;;7.34;60.15234
80911;BME280;70359;51.420;7.032;2024-03-25T02:56:44;992.4437;;;7.34;59.79199
80911;BME280;70359;51.420;7.032;2024-03-25T02:59:09;992.4338;;;7.23;60.39453
80911;BME280;70359;51.420;7.032;2024-03-25T03:01:34;992.4608;;;7.23;60.14746
80911;BME280;70359;51.420;7.032;2024-03-25T03:03:59;992.5366;;;7.28;60.2002
80911;BME280;70359;51.420;7.032;2024-03-25T03:06:24;992.5217;;;7.26;60.10645
80911;BME280;70359;51.420;7.032;2024-03-25T03:08:49;992.4944;;;7.24;60.16113
80911;BME280;70359;51.420;7.032;2024-03-25T03:11:14;992.5098;;;7.12;60.7627
80911;BME280;70359;51.420;7.032;2024-03-25T03:13:39;992.5833;;;7.18;60.37695
80911;BME280;70359;51.420;7.032;2024-03-25T03:16:04;992.5633;;;7.03;60.43457
80911;BME280;70359;51.420;7.032;2024-03-25T03:18:29;992.5826;;;7.02;60.93945
80911;BME280;70359;51.420;7.032;2024-03-25T03:20:54;992.5549;;;6.84;61.85449
80911;BME280;70359;51.420;7.032;2024-03-25T03:23:19;992.5145;;;6.87;61.35547
80911;BME280;70359;51.420;7.032;2024-03-25T03:25:44;992.5145;;;6.87;61.47852
80911;BME280;70359;51.420;7.032;2024-03-25T03:28:09;992.5123;;;6.82;61.78516
80911;BME280;70359;51.420;7.032;2024-03-25T03:30:34;992.476;;;6.77;61.81055
80911;BME280;70359;51.420;7.032;2024-03-25T03:32:59;992.4426;;;6.76;61.76465
80911;BME280;70359;51.420;7.032;2024-03-25T03:35:24;992.4814;;;6.75;61.59668
80911;BME280;70359;51.420;7.032;2024-03-25T03:37:49;992.4063;;;6.86;61.21777
80911;BME280;70359;51.420;7.032;2024-03-25T03:40:14;992.4174;;;6.83;61.03613
80911;BME280;70359;51.420;7.032;2024-03-25T03:42:39;992.4083;;;6.87;61.18555
80911;BME280;70359;51.420;7.032;2024-03-25T03:45:04;992.4203;;;6.76;61.99023
80911;BME280;70359;51.420;7.032;2024-03-25T03:47:29;992.4017;;;6.87;61.29883
80911;BME280;70359;51.420;7.032;2024-03-25T03:49:54;992.3742;;;6.97;60.91992
80911;BME280;70359;51.420;7.032;2024-03-25T03:52:19;992.4053;;;6.92;61.35059
80911;BME280;70359;51.420;7.032;2024-03-25T03:54:44;992.4193;;;6.89;61.71582
80911;BME280;70359;51.420;7.032;2024-03-25T03:57:09;992.4213;;;6.76;61.64258
80911;BME280;70359;51.420;7.032;2024-03-25T03:59:34;992.3738;;;6.59;62.87305
80911;BME280;70359;51.420;7.032;2024-03-25T04:01:59;992.373;;;6.6;63.03027
80911;BME280;70359;51.420;7.032;2024-03-25T04:04:24;992.3989;;;6.58;63.22949
80911;BME280;70359;51.420;7.032;2024-03-25T04:06:49;992.3674;;;6.71;62.77832
80911;BME280;70359;51.420;7.032;2024-03-25T04:09:14;992.3656;;;6.81;62.2207
80911;BME280;70359;51.420;7.032;2024-03-25T04:11:39;992.3021;;;6.67;62.91699
80911;BME280;70359;51.420;7.032;2024-03-25T04:14:04;992.3188;;;6.6;63.15332
80911;BME280;70359;51.420;7.032;2024-03-25T04:16:29;992.356;;;6.49;63.77637
80911;BME280;70359;51.420;7.032;2024-03-25T04:18:54;992.3506;;;6.7;63.12402
80911;BME280;70359;51.420;7.032;2024-03-25T04:21:19;992.3583;;;6.93;61.81152
80911;BME280;70359;51.420;7.032;2024-03-25T04:23:44;992.3184;;;6.83;62.3584
80911;BME280;70359;51.420;7.032;2024-03-25T04:26:09;992.343;;;6.97;61.60449
80911;BME280;70359;51.420;7.032;2024-03-25T04:28:34;992.3431;;;7.09;61.01563
80911;BME280;70359;51.420;7.032;2024-03-25T04:30:59;992.3687;;;7.06;61.31348
80911;BME280;70359;51.420;7.032;2024-03-25T04:33:24;992.4116;;;6.8;62.10742
80911;BME280;70359;51.420;7.032;2024-03-25T04:35:49;992.3755;;;6.75;62.73828
80911;BME280;70359;51.420;7.032;2024-03-25T04:38:15;992.4302;;;6.76;62.7627
80911;BME280;70359;51.420;7.032;2024-03-25T04:40:39;992.4575;;;6.53;63.04395
80911;BME280;70359;51.420;7.032;2024-03-25T04:43:04;992.4751;;;6.46;63.30176
80911;BME280;70359;51.420;7.032;2024-03-25T04:45:29;992.4716;;;6.43;64.25
80911;BME280;70359;51.420;7.032;2024-03-25T04:47:54;992.4057;;;6.51;64.43945
80911;BME280;70359;51.420;7.032;2024-03-25T04:50:19;992.4607;;;6.64;63.94434
80911;BME280;70359;51.420;7.032;2024-03-25T04:52:44;992.4489;;;6.71;63.64063
80911;BME280;70359;51.420;7.032;2024-03-25T04:55:09;992.4512;;;6.65;63.75391
80911;BME280;70359;51.420;7.032;2024-03-25T04:57:34;992.5264;;;6.64;63.12598
80911;BME280;70359;51.420;7.032;2024-03-25T04:59:59;992.5962;;;6.76;62.87402
80911;BME280;70359;51.420;7.032;2024-03-25T05:02:24;992.6344;;;6.83;62.59473
80911;BME280;70359;51.420;7.032;2024-03-25T05:04:49;992.6122;;;6.93;62.21484
80911;BME280;70359;51.420;7.032;2024-03-25T05:07:14;992.6;;;6.68;62.50586
80911;BME280;70359;51.420;7.032;2024-03-25T05:09:39;992.6234;;;6.58;63.0498
80911;BME280;70359;51.420;7.032;2024-03-25T05:12:04;992.6319;;;6.46;63.23438
80911;BME280;70359;51.420;7.032;2024-03-25T05:14:29;992.6214;;;6.58;63.27539
80911;BME280;70359;51.420;7.032;2024-03-25T05:16:54;992.5982;;;6.65;63.12793
80911;BME280;70359;51.420;7.032;2024-03-25T05:19:19;992.5531;;;6.59;62.91699
80911;BME280;70359;51.420;7.032;2024-03-25T05:21:44;992.5959;;;6.45;63.05566
80911;BME280;70359;51.420;7.032;2024-03-25T05:24:09;992.642;;;6.45;63.22168
80911;BME280;70359;51.420;7.032;2024-03-25T05:26:34;992.626;;;6.43;63.5332
80911;BME280;70359;51.420;7.032;2024-03-25T05:28:59;992.6631;;;6.43;63.76758
80911;BME280;70359;51.420;7.032;2024-03-25T05:31:24;992.6597;;;6.5;63.52148
80911;BME280;70359;51.420;7.032;2024-03-25T05:33:49;992.6509;;;6.46;63.37988
80911;BME280;70359;51.420;7.032;2024-03-25T05:36:14;992.6469;;;6.35;63.07324
80911;BME280;70359;51.420;7.032;2024-03-25T05:38:39;992.6602;;;6.28;63.72363
80911;BME280;70359;51.420;7.032;2024-03-25T05:41:04;992.6372;;;6.25;63.46191
80911;BME280;70359;51.420;7.032;2024-03-25T05:43:29;992.7155;;;6.17;63.95313
80911;BME280;70359;51.420;7.032;2024-03-25T05:45:54;992.6839;;;6.22;63.58008
80911;BME280;70359;51.420;7.032;2024-03-25T05:48:19;992.7058;;;6.2;63.49902
80911;BME280;70359;51.420;7.032;2024-03-25T05:50:44;992.7535;;;6.08;63.06738
80911;BME280;70359;51.420;7.032;2024-03-25T05:53:09;992.7315;;;6;63.50293
80911;BME280;70359;51.420;7.032;2024-03-25T05:55:34;992.7329;;;6.01;63.95313
80911;BME280;70359;51.420;7.032;2024-03-25T05:57:59;992.7425;;;5.91;64.19434
80911;BME280;70359;51.420;7.032;2024-03-25T06:00:24;992.7634;;;5.93;64.76855
80911;BME280;70359;51.420;7.032;2024-03-25T06:02:49;992.7191;;;6.01;64.79102
80911;BME280;70359;51.420;7.032;2024-03-25T06:05:14;992.6916;;;6.02;64.42285
80911;BME280;70359;51.420;7.032;2024-03-25T06:07:39;992.6788;;;6.06;64.33887
80911;BME280;70359;51.420;7.032;2024-03-25T06:10:04;992.6488;;;6.14;64.6416
80911;BME280;70359;51.420;7.032;2024-03-25T06:12:29;992.6652;;;6.17;64.26855
80911;BME280;70359;51.420;7.032;2024-03-25T06:14:54;992.665;;;6.18;64.3916
80911;BME280;70359;51.420;7.032;2024-03-25T06:17:19;992.7338;;;6.32;63.97559
80911;BME280;70359;51.420;7.032;2024-03-25T06:19:44;992.7703;;;6.58;62.79199
80911;BME280;70359;51.420;7.032;2024-03-25T06:22:09;992.8256;;;6.6;63.39941
80911;BME280;70359;51.420;7.032;2024-03-25T06:24:34;992.7534;;;6.79;62.33984
80911;BME280;70359;51.420;7.032;2024-03-25T06:26:59;992.7251;;;6.71;62.97852
80911;BME280;70359;51.420;7.032;2024-03-25T06:29:24;992.7347;;;6.9;62.23242
80911;BME280;70359;51.420;7.032;2024-03-25T06:31:49;992.7489;;;6.98;61.91992
80911;BME280;70359;51.420;7.032;2024-03-25T06:34:14;992.7787;;;7.03;61.97168
80911;BME280;70359;51.420;7.032;2024-03-25T06:36:39;992.76;;;7.03;62.38672
80911;BME280;70359;51.420;7.032;2024-03-25T06:39:04;992.7864;;;7.11;62.35449
80911;BME280;70359;51.420;7.032;2024-03-25T06:41:29;992.7555;;;6.98;63.08594
80911;BME280;70359;51.420;7.032;2024-03-25T06:43:54;992.7622;;;6.95;63.42871
80911;BME280;70359;51.420;7.032;2024-03-25T06:46:19;992.7761;;;7.04;63.39648
80911;BME280;70359;51.420;7.032;2024-03-25T06:48:44;992.7405;;;7.08;63.34766
80911;BME280;70359;51.420;7.032;2024-03-25T06:51:09;992.7932;;;7.17;63.06836
80911;BME280;70359;51.420;7.032;2024-03-25T06:53:34;992.8206;;;7.31;62.38184
80911;BME280;70359;51.420;7.032;2024-03-25T06:55:59;992.8019;;;7.3;62.37988
80911;BME280;70359;51.420;7.032;2024-03-25T06:58:25;992.8395;;;7.43;62.43359
80911;BME280;70359;51.420;7.032;2024-03-25T07:00:49;992.8276;;;7.32;62.95508
80911;BME280;70359;51.420;7.032;2024-03-25T07:03:14;992.7845;;;7.44;62.10938
80911;BME280;70359;51.420;7.032;2024-03-25T07:05:39;992.8128;;;7.32;62.69824
80911;BME280;70359;51.420;7.032;2024-03-25T07:08:04;992.8226;;;7.41;62.84473
80911;BME280;70359;51.420;7.032;2024-03-25T07:10:29;992.8438;;;7.36;62.92773
80911;BME280;70359;51.420;7.032;2024-03-25T07:12:54;992.856;;;7.45;62.71484
80911;BME280;70359;51.420;7.032;2024-03-25T07:15:19;992.8855;;;7.4;63.60645
80911;BME280;70359;51.420;7.032;2024-03-25T07:17:44;992.9052;;;7.62;62.63965
80911;BME280;70359;51.420;7.032;2024-03-25T07:20:10;992.915;;;7.57;61.93555
80911;BME280;70359;51.420;7.032;2024-03-25T07:22:34;992.9067;;;7.6;62.37793
80911;BME280;70359;51.420;7.032;2024-03-25T07:24:59;992.8933;;;7.61;62.30176
80911;BME280;70359;51.420;7.032;2024-03-25T07:27:24;992.8769;;;7.77;61.875
80911;BME280;70359;51.420;7.032;2024-03-25T07:29:49;992.8533;;;7.82;61.47754
80911;BME280;70359;51.420;7.032;2024-03-25T07:32:14;992.8784;;;7.69;62.17871
80911;BME280;70359;51.420;7.032;2024-03-25T07:34:39;992.8889;;;7.71;62.57324
80911;BME280;70359;51.420;7.032;2024-03-25T07:37:04;992.8625;;;7.87;62.29395
80911;BME280;70359;51.420;7.032;2024-03-25T07:39:29;992.8513;;;7.86;62.46191
80911;BME280;70359;51.420;7.032;2024-03-25T07:41:54;992.8553;;;7.92;62.48047
80911;BME280;70359;51.420;7.032;2024-03-25T07:44:19;992.8403;;;8.01;61.68359
80911;BME280;70359;51.420;7.032;2024-03-25T07:46:44;992.8552;;;8.07;61.92871
80911;BME280;70359;51.420;7.032;2024-03-25T07:49:09;992.8469;;;8.19;61.40527
80911;BME280;70359;51.420;7.032;2024-03-25T07:51:34;992.8459;;;8.09;60.87598
80911;BME280;70359;51.420;7.032;2024-03-25T07:53:59;992.812;;;8.17;61.61719
80911;BME280;70359;51.420;7.032;2024-03-25T07:56:24;992.7583;;;8.36;60.83301
80911;BME280;70359;51.420;7.032;2024-03-25T07:58:49;992.7681;;;8.39;60.27441
80911;BME280;70359;51.420;7.032;2024-03-25T08:01:14;992.8005;;;8.33;60.76172
80911;BME280;70359;51.420;7.032;2024-03-25T08:03:39;992.7281;;;8.43;60.42578
80911;BME280;70359;51.420;7.032;2024-03-25T08:06:05;992.7806;;;8.41;60.40039
80911;BME280;70359;51.420;7.032;2024-03-25T08:08:29;992.7936;;;8.52;59.53711
80911;BME280;70359;51.420;7.032;2024-03-25T08:10:54;992.7946;;;8.56;60.31055
80911;BME280;70359;51.420;7.032;2024-03-25T08:13:19;992.8168;;;8.68;60.25879
80911;BME280;70359;51.420;7.032;2024-03-25T08:15:45;992.8112;;;8.68;60.73145
80911;BME280;70359;51.420;7.032;2024-03-25T08:18:09;992.8122;;;8.7;60.3291
80911;BME280;70359;51.420;7.032;2024-03-25T08:20:34;992.8147;;;8.75;59.30957
80911;BME280;70359;51.420;7.032;2024-03-25T08:22:59;992.8214;;;8.84;58.31934
80911;BME280;70359;51.420;7.032;2024-03-25T08:25:24;992.808;;;8.92;59.07324
80911;BME280;70359;51.420;7.032;2024-03-25T08:27:49;992.8114;;;8.98;58.4043
80911;BME280;70359;51.420;7.032;2024-03-25T08:30:15;992.8014;;;9.04;57.36328
80911;BME280;70359;51.420;7.032;2024-03-25T08:32:39;992.7497;;;9.17;58.46484
80911;BME280;70359;51.420;7.032;2024-03-25T08:35:04;992.7553;;;9.26;57.85547
80911;BME280;70359;51.420;7.032;2024-03-25T08:37:29;992.7402;;;9.38;57.94043
80911;BME280;70359;51.420;7.032;2024-03-25T08:39:54;992.7519;;;9.42;57.30078
80911;BME280;70359;51.420;7.032;2024-03-25T08:42:19;992.6948;;;9.47;57.01172
80911;BME280;70359;51.420;7.032;2024-03-25T08:44:44;992.6421;;;9.57;58.31445
80911;BME280;70359;51.420;7.032;2024-03-25T08:47:09;992.683;;;9.64;56.96777
80911;BME280;70359;51.420;7.032;2024-03-25T08:49:34;992.6608;;;9.85;55.7959
80911;BME280;70359;51.420;7.032;2024-03-25T08:51:59;992.573;;;9.84;55.76074
80911;BME280;70359;51.420;7.032;2024-03-25T08:54:24;992.6273;;;9.97;56.69336
80911;BME280;70359;51.420;7.032;2024-03-25T08:56:49;992.634;;;10.03;54.9248
80911;BME280;70359;51.420;7.032;2024-03-25T08:59:14;992.6477;;;10.1;54.88867
80911;BME280;70359;51.420;7.032;2024-03-25T09:01:39;992.7314;;;10.26;55.47559
80911;BME280;70359;51.420;7.032;2024-03-25T09:04:04;992.7178;;;10.41;54.39551
80911;BME280;70359;51.420;7.032;2024-03-25T09:06:29;992.7336;;;10.49;52.63672
80911;BME280;70359;51.420;7.032;2024-03-25T09:08:54;992.7296;;;10.42;51.84668
80911;BME280;70359;51.420;7.032;2024-03-25T09:11:19;992.759;;;10.46;51.31738
80911;BME280;70359;51.420;7.032;2024-03-25T09:13:44;992.7908;;;10.46;51.4541
80911;BME280;70359;51.420;7.032;2024-03-25T09:16:09;992.7542;;;10.45;50.9082
80911;BME280;70359;51.420;7.032;2024-03-25T09:18:34;992.8121;;;10.55;50.30566
80911;BME280;70359;51.420;7.032;2024-03-25T09:20:59;992.8144;;;10.55;49.95605
80911;BME280;70359;51.420;7.032;2024-03-25T09:23:24;992.8209;;;10.7;50.87988
80911;BME280;70359;51.420;7.032;2024-03-25T09:25:55;992.7766;;;10.63;50.20313
80911;BME280;70359;51.420;7.032;2024-03-25T09:28:14;992.74;;;10.71;50.82617
80911;BME280;70359;51.420;7.032;2024-03-25T09:30:39;992.7204;;;10.63;47.09082
80911;BME280;70359;51.420;7.032;2024-03-25T09:33:04;992.6886;;;10.79;49.25488
80911;BME280;70359;51.420;7.032;2024-03-25T09:35:29;992.6528;;;10.79;50.8125
80911;BME280;70359;51.420;7.032;2024-03-25T09:37:54;992.6702;;;10.77;50.13965
80911;BME280;70359;51.420;7.032;2024-03-25T09:40:20;992.7392;;;10.78;48.74414
80911;BME280;70359;51.420;7.032;2024-03-25T09:42:46;992.7217;;;10.85;48.3877
80911;BME280;70359;51.420;7.032;2024-03-25T09:45:10;992.7349;;;10.89;49.6875
80911;BME280;70359;51.420;7.032;2024-03-25T09:47:34;992.7115;;;10.89;50.29004
80911;BME280;70359;51.420;7.032;2024-03-25T09:49:59;992.7022;;;11.02;49.69043
80911;BME280;70359;51.420;7.032;2024-03-25T09:52:24;992.6956;;;11.08;51.25391
80911;BME280;70359;51.420;7.032;2024-03-25T09:54:50;992.6776;;;11.15;50.81836
80911;BME280;70359;51.420;7.032;2024-03-25T09:57:15;992.6556;;;11.16;49.62695
80911;BME280;70359;51.420;7.032;2024-03-25T09:59:40;992.6351;;;11.29;48.65234
80911;BME280;70359;51.420;7.032;2024-03-25T10:02:05;992.6072;;;11.32;48.40527
80911;BME280;70359;51.420;7.032;2024-03-25T10:04:30;992.5328;;;11.38;47.02539
80911;BME280;70359;51.420;7.032;2024-03-25T10:06:55;992.5137;;;11.35;46.04297
80911;BME280;70359;51.420;7.032;2024-03-25T10:09:22;992.4522;;;11.37;46.81934
80911;BME280;70359;51.420;7.032;2024-03-25T10:11:46;992.4391;;;11.34;48.35059
80911;BME280;70359;51.420;7.032;2024-03-25T10:14:10;992.3899;;;11.39;44.50977
80911;BME280;70359;51.420;7.032;2024-03-25T10:16:35;992.3555;;;11.37;46.31738
80911;BME280;70359;51.420;7.032;2024-03-25T10:19:00;992.3773;;;11.32;45.94824
80911;BME280;70359;51.420;7.032;2024-03-25T10:21:25;992.3513;;;11.34;46.56445
80911;BME280;70359;51.420;7.032;2024-03-25T10:23:50;992.2958;;;11.37;47.30762
80911;BME280;70359;51.420;7.032;2024-03-25T10:26:23;992.3616;;;11.29;47.37891
80911;BME280;70359;51.420;7.032;2024-03-25T10:28:40;992.3417;;;11.38;45.46582
80911;BME280;70359;51.420;7.032;2024-03-25T10:31:07;992.3321;;;11.29;46.88965
80911;BME280;70359;51.420;7.032;2024-03-25T10:33:30;992.2753;;;11.37;44.98535
80911;BME280;70359;51.420;7.032;2024-03-25T10:35:55;992.2308;;;11.24;46.88379
80911;BME280;70359;51.420;7.032;2024-03-25T10:38:20;992.1573;;;11.23;45.2334
80911;BME280;70359;51.420;7.032;2024-03-25T10:40:45;992.1164;;;11.22;47.33789
80911;BME280;70359;51.420;7.032;2024-03-25T10:43:10;992.0934;;;11.31;45.63965
80911;BME280;70359;51.420;7.032;2024-03-25T10:45:35;992.1025;;;11.27;46.13672
80911;BME280;70359;51.420;7.032;2024-03-25T10:48:03;991.9659;;;11.38;44.40527
80911;BME280;70359;51.420;7.032;2024-03-25T10:50:25;991.9342;;;11.28;45.60254
80911;BME280;70359;51.420;7.032;2024-03-25T10:52:50;992.0005;;;11.27;44.77051
80911;BME280;70359;51.420;7.032;2024-03-25T10:55:15;991.9562;;;11.36;44.16504
80911;BME280;70359;51.420;7.032;2024-03-25T10:57:40;991.8946;;;11.36;43.73145
80911;BME280;70359;51.420;7.032;2024-03-25T11:00:05;991.8517;;;11.39;43.53027
80911;BME280;70359;51.420;7.032;2024-03-25T11:02:30;991.8214;;;11.39;43.87109
80911;BME280;70359;51.420;7.032;2024-03-25T11:04:56;991.8105;;;11.34;45.08496
80911;BME280;70359;51.420;7.032;2024-03-25T11:07:24;991.7759;;;11.35;45.26855
80911;BME280;70359;51.420;7.032;2024-03-25T11:09:45;991.7215;;;11.4;44.86426
80911;BME280;70359;51.420;7.032;2024-03-25T11:12:10;991.7729;;;11.42;42.62109
80911;BME280;70359;51.420;7.032;2024-03-25T11:14:35;991.7294;;;11.43;43.52246
80911;BME280;70359;51.420;7.032;2024-03-25T11:17:00;991.6589;;;11.43;44.87793
80911;BME280;70359;51.420;7.032;2024-03-25T11:19:25;991.6663;;;11.58;44.66504
80911;BME280;70359;51.420;7.032;2024-03-25T11:21:50;991.6153;;;11.57;42.07715
80911;BME280;70359;51.420;7.032;2024-03-25T11:24:15;991.6129;;;11.62;43.49609
80911;BME280;70359;51.420;7.032;2024-03-25T11:26:43;991.5555;;;11.5;43.01563
80911;BME280;70359;51.420;7.032;2024-03-25T11:29:05;991.5385;;;11.59;43.45898
80911;BME280;70359;51.420;7.032;2024-03-25T11:31:30;991.4277;;;11.55;43.59082
80911;BME280;70359;51.420;7.032;2024-03-25T11:33:55;991.4255;;;11.59;43.64063
80911;BME280;70359;51.420;7.032;2024-03-25T11:36:20;991.3733;;;11.6;43.65332
80911;BME280;70359;51.420;7.032;2024-03-25T11:38:45;991.3086;;;11.59;43.49316
80911;BME280;70359;51.420;7.032;2024-03-25T11:41:10;991.3002;;;11.55;43.3291
80911;BME280;70359;51.420;7.032;2024-03-25T11:43:35;991.2949;;;11.41;40.81934
80911;BME280;70359;51.420;7.032;2024-03-25T11:46:00;991.2697;;;11.43;41.57422
80911;BME280;70359;51.420;7.032;2024-03-25T11:48:25;991.2742;;;11.46;41.34863
80911;BME280;70359;51.420;7.032;2024-03-25T11:50:50;991.2664;;;11.43;43.11328
80911;BME280;70359;51.420;7.032;2024-03-25T11:53:16;991.2798;;;11.48;41.81836
80911;BME280;70359;51.420;7.032;2024-03-25T11:55:40;991.2471;;;11.45;42.24902
80911;BME280;70359;51.420;7.032;2024-03-25T11:58:05;991.2281;;;11.6;43.59668
80911;BME280;70359;51.420;7.032;2024-03-25T12:00:30;991.2189;;;11.66;42.72461
80911;BME280;70359;51.420;7.032;2024-03-25T12:02:55;991.1836;;;11.76;42.28906
80911;BME280;70359;51.420;7.032;2024-03-25T12:05:20;991.0984;;;11.77;42.4043
80911;BME280;70359;51.420;7.032;2024-03-25T12:07:45;991.0984;;;11.87;40.96484
80911;BME280;70359;51.420;7.032;2024-03-25T12:10:10;991.0969;;;11.93;40.61621
80911;BME280;70359;51.420;7.032;2024-03-25T12:12:35;991.0114;;;11.97;42.25293
80911;BME280;70359;51.420;7.032;2024-03-25T12:15:00;990.9813;;;12.03;39.23242
80911;BME280;70359;51.420;7.032;2024-03-25T12:17:25;990.8883;;;12;38.45313
80911;BME280;70359;51.420;7.032;2024-03-25T12:22:15;990.8613;;;11.99;39.60547
80911;BME280;70359;51.420;7.032;2024-03-25T12:24:40;990.8229;;;12.11;39.83301
80911;BME280;70359;51.420;7.032;2024-03-25T12:27:05;990.8276;;;12.05;40.81055
80911;BME280;70359;51.420;7.032;2024-03-25T12:29:30;990.7919;;;12.05;39.06348